Time;durP1;ratioP1;P1;durP2;ratioP2;P2;SDS_P1;SDS_P2;PMS_P1;PMS_P2;Temp;Humidity;BMP_temperature;BMP_pressure;BME280_temperature;BME280_humidity;BME280_pressure;Samples;Min_cycle;Max_cycle;Signal;HPM_P1;HPM_P2
2023/06/24 00:01:24;;;;;;;1999.90;999.90;;;;;;;19.34;100.00;98079.25;4975810;28;20034;-74
2023/06/24 00:03:52;;;;;;;1999.90;999.90;;;;;;;19.36;100.00;98065.81;4993136;28;20065;-75
2023/06/24 00:06:18;;;;;;;1999.90;999.90;;;;;;;19.34;100.00;98062.59;4992995;28;20498;-76
2023/06/24 00:08:48;;;;;;;1999.90;999.90;;;;;;;19.23;100.00;98067.81;4993222;28;20030;-74
2023/06/24 00:11:13;;;;;;;1999.90;999.90;;;;;;;19.18;100.00;98054.19;4992961;28;20026;-74
2023/06/24 00:13:39;;;;;;;1999.90;999.90;;;;;;;19.26;100.00;98050.47;4992953;28;20085;-74
2023/06/24 00:16:06;;;;;;;1999.90;999.90;;;;;;;19.31;100.00;98052.19;4993762;28;20546;-76
2023/06/24 00:18:32;;;;;;;1999.90;999.90;;;;;;;19.33;100.00;98051.88;4993181;28;20030;-76
2023/06/24 00:20:57;;;;;;;1999.90;999.90;;;;;;;19.47;100.00;98066.19;4992919;28;20089;-75
2023/06/24 00:23:26;;;;;;;1999.90;999.90;;;;;;;19.53;100.00;98068.38;4975640;28;20038;-74
2023/06/24 00:25:55;;;;;;;1999.90;999.90;;;;;;;19.51;100.00;98067.09;4992989;28;20031;-75
2023/06/24 00:28:21;;;;;;;1999.90;999.90;;;;;;;19.49;100.00;98053.56;4992773;28;20034;-75
2023/06/24 00:30:47;;;;;;;1999.90;999.90;;;;;;;19.44;100.00;98058.56;4993019;28;20077;-74
2023/06/24 00:33:13;;;;;;;1999.90;999.90;;;;;;;19.52;100.00;98052.06;4997619;28;20014;-75
2023/06/24 00:35:39;;;;;;;1999.90;999.90;;;;;;;19.46;100.00;98062.59;4996646;28;20129;-76
2023/06/24 00:38:05;;;;;;;1999.90;999.90;;;;;;;19.50;100.00;98069.06;4996736;28;20054;-76
2023/06/24 00:40:30;;;;;;;1999.90;999.90;;;;;;;19.56;100.00;98070.44;4992868;28;20678;-76
2023/06/24 00:42:56;;;;;;;1999.90;999.90;;;;;;;19.47;100.00;98074.50;4985261;28;20062;-76
2023/06/24 00:45:24;;;;;;;1999.90;999.90;;;;;;;19.41;100.00;98076.72;4987645;28;20034;-73
2023/06/24 00:47:51;;;;;;;1999.90;999.90;;;;;;;19.38;100.00;98091.25;4992359;28;20026;-75
2023/06/24 00:50:17;;;;;;;1999.90;999.90;;;;;;;19.34;100.00;98092.28;4992634;28;20018;-75
2023/06/24 00:52:43;;;;;;;1999.90;999.90;;;;;;;19.38;100.00;98102.38;4992494;28;20033;-74
2023/06/24 00:55:14;;;;;;;1999.90;999.90;;;;;;;19.39;100.00;98111.50;4992291;28;20523;-74
2023/06/24 00:57:44;;;;;;;1999.90;999.90;;;;;;;19.36;100.00;98114.97;4992112;28;20019;-75
2023/06/24 01:00:14;;;;;;;1999.90;999.90;;;;;;;19.26;100.00;98128.13;4992516;28;20046;-75
2023/06/24 01:02:42;;;;;;;1999.90;999.90;;;;;;;19.11;100.00;98112.19;4974789;28;20018;-75
2023/06/24 01:05:08;;;;;;;1999.90;999.90;;;;;;;19.09;100.00;98117.28;4992258;28;20105;-74
2023/06/24 01:07:35;;;;;;;1999.90;999.90;;;;;;;18.96;100.00;98118.44;4992231;28;20510;-74
2023/06/24 01:10:07;;;;;;;1999.90;999.90;;;;;;;18.99;100.00;98112.19;4976438;28;20022;-74
2023/06/24 01:12:43;;;;;;;1999.90;999.90;;;;;;;18.81;100.00;98127.44;4992601;28;20026;-74
2023/06/24 01:15:10;;;;;;;1999.90;999.90;;;;;;;18.70;100.00;98124.28;4992294;28;20023;-75
2023/06/24 01:17:50;;;;;;;1999.90;999.90;;;;;;;18.68;100.00;98121.06;4991672;28;20023;-74
2023/06/24 01:20:29;;;;;;;1999.90;999.90;;;;;;;18.56;100.00;98120.25;4991808;28;20394;-75
2023/06/24 01:23:27;;;;;;;1999.90;999.90;;;;;;;18.61;100.00;98125.53;4991768;28;20030;-75
2023/06/24 01:25:55;;;;;;;1999.90;999.90;;;;;;;18.51;100.00;98126.78;4955361;28;20491;-75
2023/06/24 01:28:20;;;;;;;1999.90;999.90;;;;;;;18.44;100.00;98139.56;4992249;28;20034;-75
2023/06/24 01:31:23;;;;;;;1999.90;999.90;;;;;;;18.45;100.00;98141.22;4992273;28;20040;-74
2023/06/24 01:34:21;;;;;;;1999.90;999.90;;;;;;;18.43;100.00;98136.00;4972780;28;20043;-73
2023/06/24 01:36:55;;;;;;;1999.90;999.90;;;;;;;18.33;100.00;98130.06;4972734;28;20419;-74
2023/06/24 01:39:24;;;;;;;1999.90;999.90;;;;;;;18.23;100.00;98119.44;4973893;28;20022;-76
2023/06/24 01:41:57;;;;;;;1999.90;999.90;;;;;;;18.22;100.00;98131.66;4973784;28;20030;-74
2023/06/24 01:44:27;;;;;;;1999.90;999.90;;;;;;;18.06;100.00;98129.53;4955219;28;20034;-75
2023/06/24 01:46:57;;;;;;;1999.90;999.90;;;;;;;18.00;100.00;98122.56;4955386;28;20034;-74
2023/06/24 01:49:27;;;;;;;1999.90;999.90;;;;;;;18.03;100.00;98130.19;4955018;28;20066;-75
2023/06/24 01:51:55;;;;;;;1999.90;999.90;;;;;;;18.00;100.00;98125.34;4972535;28;20125;-75
2023/06/24 01:54:22;;;;;;;1999.90;999.90;;;;;;;17.78;100.00;98117.41;4972516;28;20118;-74
2023/06/24 01:56:52;;;;;;;1999.90;999.90;;;;;;;17.81;100.00;98132.50;4990033;28;20390;-74
2023/06/24 01:59:20;;;;;;;1999.90;999.90;;;;;;;17.86;100.00;98135.06;4988342;28;20076;-75
2023/06/24 02:01:46;;;;;;;1999.90;999.90;;;;;;;17.87;100.00;98142.22;4971137;28;20038;-75
2023/06/24 02:04:13;;;;;;;1999.90;999.90;;;;;;;17.81;100.00;98151.88;4971996;28;20030;-75
2023/06/24 02:06:40;;;;;;;1999.90;999.90;;;;;;;17.93;100.00;98141.69;4972011;28;20062;-76
2023/06/24 02:09:07;;;;;;;1999.90;999.90;;;;;;;17.90;100.00;98145.13;4954941;28;20038;-76
2023/06/24 02:11:33;;;;;;;1999.90;999.90;;;;;;;17.81;100.00;98151.88;4972158;28;20023;-76
2023/06/24 02:14:02;;;;;;;1999.90;999.90;;;;;;;17.80;100.00;98153.00;4971731;28;21080;-76
2023/06/24 02:16:29;;;;;;;1999.90;999.90;;;;;;;17.77;100.00;98154.50;4973005;28;20034;-76
2023/06/24 02:18:56;;;;;;;1999.90;999.90;;;;;;;17.75;100.00;98159.56;4972006;28;20023;-76
2023/06/24 02:21:24;;;;;;;1999.90;999.90;;;;;;;17.62;100.00;98153.16;4971895;28;20057;-73
2023/06/24 02:23:51;;;;;;;1999.90;999.90;;;;;;;17.67;100.00;98166.78;4971886;28;20534;-74
2023/06/24 02:26:17;;;;;;;1999.90;999.90;;;;;;;17.69;100.00;98162.88;4971947;28;20170;-75
2023/06/24 02:28:45;;;;;;;1999.90;999.90;;;;;;;17.76;100.00;98161.19;4975080;28;20030;-74
2023/06/24 02:31:12;;;;;;;1999.90;999.90;;;;;;;17.69;100.00;98149.03;4988394;28;20030;-75
2023/06/24 02:33:41;;;;;;;1999.90;999.90;;;;;;;17.63;100.00;98148.44;4986411;28;20023;-77
2023/06/24 02:36:07;;;;;;;1999.90;999.90;;;;;;;17.72;100.00;98168.56;4971303;28;20492;-75
2023/06/24 02:38:34;;;;;;;1999.90;999.90;;;;;;;17.83;100.00;98164.22;4971340;28;20113;-75
2023/06/24 02:41:00;;;;;;;1999.90;999.90;;;;;;;17.93;100.00;98163.00;4971422;28;20487;-75
2023/06/24 02:43:25;;;;;;;1999.90;999.90;;;;;;;17.98;100.00;98169.16;4971847;28;20042;-76
2023/06/24 02:45:53;;;;;;;1999.90;999.90;;;;;;;17.98;100.00;98165.59;4980594;28;20485;-76
2023/06/24 02:48:20;;;;;;;1999.90;999.90;;;;;;;17.95;100.00;98150.44;4994446;28;20018;-76
2023/06/24 02:50:46;;;;;;;1999.90;999.90;;;;;;;18.04;100.00;98158.69;4990877;28;20061;-75
2023/06/24 02:53:13;;;;;;;1999.90;999.90;;;;;;;18.05;100.00;98174.16;4990568;28;20031;-75
2023/06/24 02:55:41;;;;;;;1999.90;999.90;;;;;;;18.04;100.00;98175.31;4973293;28;20121;-74
2023/06/24 02:58:07;;;;;;;1999.90;999.90;;;;;;;18.00;100.00;98177.13;4990670;28;20030;-75
2023/06/24 03:00:33;;;;;;;1999.90;999.90;;;;;;;17.92;100.00;98167.72;4990704;28;20053;-77
2023/06/24 03:03:01;;;;;;;1999.90;999.90;;;;;;;17.86;100.00;98166.31;4990632;28;20479;-75
2023/06/24 03:05:27;;;;;;;1999.90;999.90;;;;;;;17.88;100.00;98169.56;4973175;28;20124;-74
2023/06/24 03:07:53;;;;;;;1999.90;999.90;;;;;;;17.79;100.00;98168.03;4992501;28;20061;-77
2023/06/24 03:10:18;;;;;;;1999.90;999.90;;;;;;;17.90;100.00;98189.41;5010035;28;20474;-75
2023/06/24 03:12:44;;;;;;;1999.90;999.90;;;;;;;17.82;100.00;98181.19;5009917;28;20038;-75
2023/06/24 03:15:09;;;;;;;1999.90;999.90;;;;;;;17.86;100.00;98191.22;5010257;28;20030;-75
2023/06/24 03:17:36;;;;;;;1999.90;999.90;;;;;;;17.87;100.00;98187.31;5010343;28;20050;-75
2023/06/24 03:20:01;;;;;;;1999.90;999.90;;;;;;;17.81;100.00;98180.38;5010183;28;20053;-73
2023/06/24 03:22:27;;;;;;;1999.90;999.90;;;;;;;17.79;100.00;98166.06;5004595;28;20538;-75
2023/06/24 03:24:52;;;;;;;1999.90;999.90;;;;;;;17.84;100.00;98181.66;4974975;28;20031;-77
2023/06/24 03:27:18;;;;;;;1999.90;999.90;;;;;;;17.87;100.00;98198.41;4990283;28;20046;-74
2023/06/24 03:29:45;;;;;;;1999.90;999.90;;;;;;;18.14;100.00;98197.03;4990297;28;20037;-77
2023/06/24 03:32:11;;;;;;;1999.90;999.90;;;;;;;18.80;100.00;98203.44;4990263;28;20030;-75
2023/06/24 03:34:36;;;;;;;1999.90;999.90;;;;;;;19.38;100.00;98191.16;4990298;28;20496;-75
2023/06/24 03:37:04;;;;;;;1999.90;999.90;;;;;;;20.03;100.00;98201.16;4990122;28;20063;-75
2023/06/24 03:39:29;;;;;;;1999.90;999.90;;;;;;;20.36;100.00;98214.84;4990251;28;20036;-75
2023/06/24 03:41:54;;;;;;;1999.90;999.90;;;;;;;20.55;100.00;98205.88;4992025;28;20026;-75
2023/06/24 03:44:20;;;;;;;1999.90;999.90;;;;;;;20.76;100.00;98214.81;4993816;28;20489;-75
2023/06/24 03:46:45;;;;;;;1999.90;999.90;;;;;;;20.95;100.00;98211.34;4976769;28;20082;-76
2023/06/24 03:49:10;;;;;;;1999.90;999.90;;;;;;;20.24;100.00;98215.66;4994197;28;20065;-76
2023/06/24 03:51:36;;;;;;;1999.90;999.90;;;;;;;19.66;100.00;98207.94;4994331;28;20109;-76
2023/06/24 03:54:01;;;;;;;1999.90;999.90;;;;;;;19.40;100.00;98197.19;4975337;28;20121;-76
2023/06/24 03:56:26;;;;;;;1999.90;999.90;;;;;;;19.31;100.00;98199.22;4974227;28;20472;-76
2023/06/24 03:58:52;;;;;;;1999.90;999.90;;;;;;;19.13;100.00;98215.28;4986432;28;20049;-75
2023/06/24 04:01:20;;;;;;;1999.90;999.90;;;;;;;19.02;100.00;98216.06;4976147;28;20023;-76
2023/06/24 04:03:46;;;;;;;1999.90;999.90;;;;;;;18.71;100.00;98184.13;4993451;28;20027;-76
2023/06/24 04:06:11;;;;;;;1999.90;999.90;;;;;;;18.78;100.00;98205.75;4993293;28;20085;-75
2023/06/24 04:08:39;;;;;;;1999.90;999.90;;;;;;;18.71;100.00;98202.72;4980050;28;20041;-76
2023/06/24 04:11:06;;;;;;;1999.90;999.90;;;;;;;18.73;100.00;98208.75;4993144;28;20364;-76
2023/06/24 04:13:35;;;;;;;1999.90;999.90;;;;;;;19.49;100.00;98210.94;4985062;28;20025;-74
2023/06/24 04:16:00;;;;;;;1999.90;999.90;;;;;;;20.66;100.00;98218.09;4974200;28;20101;-75
2023/06/24 04:18:25;;;;;;;1999.90;999.90;;;;;;;20.79;100.00;98220.47;4956781;28;20381;-75
2023/06/24 04:20:51;;;;;;;1999.90;999.90;;;;;;;21.30;100.00;98223.44;4973858;28;20027;-75
2023/06/24 04:23:16;;;;;;;1999.90;999.90;;;;;;;21.10;100.00;98228.06;4973709;28;20034;-75
2023/06/24 04:25:42;;;;;;;1999.90;999.90;;;;;;;21.48;100.00;98230.25;4981752;28;20109;-75
2023/06/24 04:28:08;;;;;;;1999.90;999.90;;;;;;;21.28;100.00;98234.91;4993001;28;20035;-77
2023/06/24 04:30:35;;;;;;;1999.90;999.90;;;;;;;21.04;100.00;98235.03;4992977;28;20061;-77
2023/06/24 04:33:00;;;;;;;1999.90;999.90;;;;;;;20.77;100.00;98236.69;4992828;28;20407;-76
2023/06/24 04:35:26;;;;;;;1999.90;999.90;;;;;;;20.68;100.00;98238.00;4995246;28;20081;-77
2023/06/24 04:37:51;;;;;;;1999.90;999.90;;;;;;;20.55;100.00;98239.25;4993079;28;20069;-76
2023/06/24 04:40:17;;;;;;;1999.90;999.90;;;;;;;20.41;100.00;98239.63;4993004;28;20391;-76
2023/06/24 04:42:42;;;;;;;1999.90;999.90;;;;;;;;;;4992761;28;20076;-77
2023/06/24 04:45:08;;;;;;;1999.90;999.90;;;;;;;20.54;100.00;98245.94;4992925;28;20027;-76
2023/06/24 04:47:34;;;;;;;1999.90;999.90;;;;;;;20.59;100.00;98251.25;4992539;28;20034;-77
2023/06/24 04:49:59;;;;;;;1999.90;999.90;;;;;;;20.76;100.00;98250.94;4992994;28;20022;-75
2023/06/24 04:52:24;;;;;;;1999.90;999.90;;;;;;;20.74;100.00;98254.06;4992238;28;20117;-76
2023/06/24 04:54:50;;;;;;;1999.90;999.90;;;;;;;20.72;100.00;98259.19;4993216;28;20140;-74
2023/06/24 04:57:28;;;;;;;1999.90;999.90;;;;;;;20.54;100.00;98252.31;4996559;28;20034;-76
2023/06/24 04:59:53;;;;;;;1999.90;999.90;;;;;;;20.52;100.00;98254.63;4993973;28;20038;-77
2023/06/24 05:02:18;;;;;;;1999.90;999.90;;;;;;;20.50;100.00;98259.75;4983889;28;20030;-78
2023/06/24 05:04:44;;;;;;;1999.90;999.90;;;;;;;;;;4973222;28;20031;-75
2023/06/24 05:07:10;;;;;;;1999.90;999.90;;;;;;;20.67;100.00;98248.34;4956073;28;20427;-77
2023/06/24 05:09:38;;;;;;;1999.90;999.90;;;;;;;20.73;100.00;98254.44;4956453;28;20273;-82
2023/06/24 05:12:05;;;;;;;1999.90;999.90;;;;;;;20.74;100.00;98259.63;4973734;28;20031;-77
2023/06/24 05:14:30;;;;;;;1999.90;999.90;;;;;;;20.77;100.00;98269.22;4956001;28;20042;-81
2023/06/24 05:16:55;;;;;;;1999.90;999.90;;;;;;;20.82;100.00;98271.78;4974352;28;20070;-76
2023/06/24 05:19:21;;;;;;;1999.90;999.90;;;;;;;20.77;100.00;98274.78;4972743;28;20487;-76
2023/06/24 05:21:46;;;;;;;1999.90;999.90;;;;;;;20.77;100.00;98269.22;4972862;28;20030;-76
2023/06/24 05:24:11;;;;;;;1999.90;999.90;;;;;;;20.96;100.00;98283.28;4972309;28;20034;-76
2023/06/24 05:26:37;;;;;;;1999.90;999.90;;;;;;;20.89;100.00;98285.91;4972617;28;20121;-76
2023/06/24 05:29:03;;;;;;;1999.90;999.90;;;;;;;20.56;100.00;98285.31;4955228;28;20053;-75
2023/06/24 05:31:28;;;;;;;1999.90;999.90;;;;;;;20.46;100.00;98288.56;4972652;28;20438;-80
2023/06/24 05:33:53;;;;;;;1999.90;999.90;;;;;;;20.37;100.00;98299.03;4972532;28;20102;-76
2023/06/24 05:36:19;;;;;;;1999.90;999.90;;;;;;;20.48;100.00;98300.16;4972606;28;20125;-76
2023/06/24 05:38:44;;;;;;;1999.90;999.90;;;;;;;20.57;100.00;98293.31;4972290;28;20022;-76
2023/06/24 05:41:09;;;;;;;1999.90;999.90;;;;;;;20.73;100.00;98298.94;4972448;28;20011;-78
2023/06/24 05:43:35;;;;;;;1999.90;999.90;;;;;;;20.41;100.00;98311.06;4972547;28;20023;-77
2023/06/24 05:46:00;;;;;;;1999.90;999.90;;;;;;;20.93;100.00;98311.81;4972296;28;20045;-75
2023/06/24 05:48:25;;;;;;;1999.90;999.90;;;;;;;21.16;100.00;98307.34;4972592;28;20033;-74
2023/06/24 05:50:51;;;;;;;1999.90;999.90;;;;;;;21.38;100.00;98305.13;4972210;28;20114;-77
2023/06/24 05:53:16;;;;;;;1999.90;999.90;;;;;;;21.40;100.00;98313.91;4983765;28;20029;-76
2023/06/24 05:55:41;;;;;;;1999.90;999.90;;;;;;;21.63;100.00;98317.72;4974013;28;20025;-76
2023/06/24 05:58:07;;;;;;;1999.90;999.90;;;;;;;21.65;100.00;98320.94;4991697;28;20032;-76
2023/06/24 06:00:32;;;;;;;1999.90;999.90;;;;;;;21.60;100.00;98322.03;4991582;28;20032;-76
2023/06/24 06:02:57;;;;;;;1999.90;999.90;;;;;;;21.49;100.00;98325.72;4991305;28;20034;-76
2023/06/24 06:05:29;;;;;;;1999.90;999.90;;;;;;;21.85;100.00;98319.88;4991844;28;20026;-76
2023/06/24 06:07:54;;;;;;;1999.90;999.90;;;;;;;21.63;100.00;98314.94;4992906;28;20053;-74
2023/06/24 06:10:19;;;;;;;1999.90;999.90;;;;;;;21.51;100.00;98321.41;4992231;28;20058;-76
2023/06/24 06:12:45;;;;;;;1999.90;999.90;;;;;;;21.21;100.00;98318.19;4997064;28;20025;-74
2023/06/24 06:15:11;;;;;;;1999.90;999.90;;;;;;;21.38;100.00;98316.25;4975727;28;20096;-75
2023/06/24 06:17:37;;;;;;;1999.90;999.90;;;;;;;21.21;100.00;98318.19;5002153;28;20118;-74
2023/06/24 06:20:02;;;;;;;1999.90;999.90;;;;;;;21.71;100.00;98320.31;5002183;28;20422;-76
2023/06/24 06:22:28;;;;;;;1999.90;999.90;;;;;;;21.92;100.00;98328.44;5008321;28;20498;-75
2023/06/24 06:24:53;;;;;;;1999.90;999.90;;;;;;;21.73;100.00;98306.84;4999467;28;20022;-75
2023/06/24 06:27:18;;;;;;;1999.90;999.90;;;;;;;22.40;100.00;98336.34;4983608;28;20029;-74
2023/06/24 06:29:43;;;;;;;1999.90;999.90;;;;;;;22.43;100.00;98341.22;4996099;28;20561;-76
2023/06/24 06:32:09;;;;;;;1999.90;999.90;;;;;;;22.36;100.00;98340.25;4991121;28;20467;-76
2023/06/24 06:34:34;;;;;;;1999.90;999.90;;;;;;;23.05;100.00;98339.41;4991069;28;20030;-75
2023/06/24 06:37:00;;;;;;;1999.90;999.90;;;;;;;23.25;100.00;98337.38;4990803;28;20064;-76
2023/06/24 06:39:25;;;;;;;1999.90;999.90;;;;;;;23.44;100.00;98334.59;4989486;28;20037;-74
2023/06/24 06:41:51;;;;;;;1999.90;999.90;;;;;;;23.19;100.00;98336.88;4990805;28;20030;-74
2023/06/24 06:44:16;;;;;;;1999.90;999.90;;;;;;;23.17;100.00;98336.44;4990897;28;20043;-75
2023/06/24 06:46:41;;;;;;;1999.90;999.90;;;;;;;23.30;100.00;98340.72;4973363;28;20034;-74
2023/06/24 06:49:07;;;;;;;1999.90;999.90;;;;;;;23.65;100.00;98334.97;4991066;28;20038;-74
2023/06/24 06:51:32;;;;;;;1999.90;999.90;;;;;;;23.68;100.00;98341.84;4990795;28;20037;-74
2023/06/24 06:53:57;;;;;;;1999.90;999.90;;;;;;;24.03;94.65;98333.25;4991616;28;20026;-75
2023/06/24 06:56:24;;;;;;;1999.90;999.90;;;;;;;24.00;85.49;98332.78;4993335;28;20030;-76
2023/06/24 06:58:50;;;;;;;1999.90;999.90;;;;;;;23.42;87.61;98334.97;5003223;28;20444;-76
2023/06/24 07:01:17;;;;;;;1999.90;999.90;;;;;;;23.03;84.58;98333.34;4990950;28;20133;-77
2023/06/24 07:03:42;;;;;;;1999.90;999.90;;;;;;;22.79;87.43;98326.09;5002361;28;20022;-80
2023/06/24 07:06:07;;;;;;;1999.90;999.90;;;;;;;22.86;87.04;98315.09;5013653;28;20034;-79
2023/06/24 07:08:33;;;;;;;1999.90;999.90;;;;;;;22.71;92.05;98324.31;5014378;28;20518;-76
2023/06/24 07:10:59;;;;;;;1999.90;999.90;;;;;;;22.49;94.82;98324.22;5019391;28;20022;-78
2023/06/24 07:13:24;;;;;;;1999.90;999.90;;;;;;;22.72;92.54;98322.34;5011378;28;20371;-73
2023/06/24 07:15:49;;;;;;;1999.90;999.90;;;;;;;22.87;93.55;98316.69;5010181;28;20026;-74
2023/06/24 07:18:14;;;;;;;1999.90;999.90;;;;;;;23.20;89.60;98320.94;5014364;28;20048;-75
2023/06/24 07:20:40;;;;;;;1999.90;999.90;;;;;;;23.60;87.53;98314.94;5015803;28;20112;-76
2023/06/24 07:23:05;;;;;;;1999.90;999.90;;;;;;;23.66;82.55;98324.63;5014262;28;20534;-75
2023/06/24 07:25:31;;;;;;;1999.90;999.90;;;;;;;23.81;84.79;98313.31;5014354;28;20033;-72
2023/06/24 07:27:56;;;;;;;1999.90;999.90;;;;;;;23.69;82.37;98321.88;5013949;28;20026;-76
2023/06/24 07:30:22;;;;;;;1999.90;999.90;;;;;;;23.80;81.38;98319.28;5013315;28;20037;-74
2023/06/24 07:32:48;;;;;;;1999.90;999.90;;;;;;;23.68;82.15;98322.28;4994140;28;20030;-74
2023/06/24 07:35:16;;;;;;;1999.90;999.90;;;;;;;23.65;83.61;98321.00;4993895;28;20018;-75
2023/06/24 07:37:41;;;;;;;1999.90;999.90;;;;;;;23.02;90.07;98312.22;4994038;28;20046;-76
2023/06/24 07:40:07;;;;;;;1999.90;999.90;;;;;;;22.94;91.46;98304.88;4994190;28;20026;-75
2023/06/24 07:42:33;;;;;;;1999.90;999.90;;;;;;;22.93;91.98;98300.44;4993955;28;20030;-75
2023/06/24 07:44:58;;;;;;;1999.90;999.90;;;;;;;22.35;96.53;98297.63;4993953;28;20045;-74
2023/06/24 07:47:24;;;;;;;1999.90;999.90;;;;;;;23.21;90.76;98312.19;4994056;28;20034;-73
2023/06/24 07:49:49;;;;;;;1999.90;999.90;;;;;;;23.34;92.17;98319.22;5004990;28;20108;-76
2023/06/24 07:52:14;;;;;;;1999.90;999.90;;;;;;;22.82;93.15;98319.78;5012858;28;20045;-76
2023/06/24 07:54:41;;;;;;;1999.90;999.90;;;;;;;22.89;91.70;98316.34;5011997;28;20026;-74
2023/06/24 07:57:06;;;;;;;1999.90;999.90;;;;;;;23.22;91.20;98318.56;5012160;28;20036;-74
2023/06/24 07:59:31;;;;;;;1999.90;999.90;;;;;;;24.08;83.89;98318.94;5012119;28;20018;-76
2023/06/24 08:01:57;;;;;;;1999.90;999.90;;;;;;;23.24;89.49;98322.59;5005908;28;20386;-73
2023/06/24 08:04:22;;;;;;;1999.90;999.90;;;;;;;23.95;82.28;98323.94;4992329;28;20023;-73
2023/06/24 08:06:48;;;;;;;1999.90;999.90;;;;;;;23.82;83.08;98322.50;4994128;28;20038;-73
2023/06/24 08:09:13;;;;;;;1999.90;999.90;;;;;;;23.45;82.95;98319.47;5002090;28;20038;-74
2023/06/24 08:11:38;;;;;;;1999.90;999.90;;;;;;;24.22;79.69;98321.97;5005857;28;20036;-73
2023/06/24 08:14:04;;;;;;;1999.90;999.90;;;;;;;24.74;78.93;98327.56;4987111;28;20026;-76
2023/06/24 08:16:29;;;;;;;1999.90;999.90;;;;;;;24.86;79.34;98318.13;5005397;28;20084;-76
2023/06/24 08:18:54;;;;;;;1999.90;999.90;;;;;;;24.85;78.60;98314.53;5015033;28;20485;-75
2023/06/24 08:21:20;;;;;;;1999.90;999.90;;;;;;;24.70;78.26;98303.50;5003025;28;20482;-75
2023/06/24 08:23:46;;;;;;;1999.90;999.90;;;;;;;24.10;80.88;98314.59;5000945;28;20041;-79
2023/06/24 08:26:12;;;;;;;1999.90;999.90;;;;;;;23.52;82.39;98314.00;5004218;28;20062;-74
2023/06/24 08:28:37;;;;;;;1999.90;999.90;;;;;;;23.73;84.94;98313.56;5001671;28;20034;-76
2023/06/24 08:31:03;;;;;;;1999.90;999.90;;;;;;;23.18;84.18;98315.72;4992859;28;20030;-75
2023/06/24 08:33:28;;;;;;;1999.90;999.90;;;;;;;24.32;79.80;98324.94;5012790;28;20402;-70
2023/06/24 08:35:53;;;;;;;1999.90;999.90;;;;;;;24.28;76.43;98324.06;4997865;28;20023;-74
2023/06/24 08:38:19;;;;;;;1999.90;999.90;;;;;;;24.32;76.18;98324.13;5004205;28;20033;-74
2023/06/24 08:40:46;;;;;;;1999.90;999.90;;;;;;;23.98;77.90;98315.59;5000482;28;20057;-71
2023/06/24 08:43:11;;;;;;;1999.90;999.90;;;;;;;24.22;74.66;98320.00;5009359;28;20026;-72
2023/06/24 08:45:37;;;;;;;1999.90;999.90;;;;;;;23.41;79.22;98313.00;5004773;28;20441;-73
2023/06/24 08:48:03;;;;;;;1999.90;999.90;;;;;;;24.09;76.79;98309.38;5012261;28;20034;-71
2023/06/24 08:50:36;;;;;;;1999.90;999.90;;;;;;;24.30;76.28;98304.13;5008233;28;20064;-72
2023/06/24 08:53:07;;;;;;;1999.90;999.90;;;;;;;24.59;73.04;98308.16;5009438;28;20025;-71
2023/06/24 08:55:39;;;;;;;1999.90;999.90;;;;;;;24.37;75.53;98309.84;4997176;28;20108;-71
2023/06/24 08:58:04;;;;;;;1999.90;999.90;;;;;;;24.74;74.41;98302.38;4999684;28;20053;-71
2023/06/24 09:00:30;;;;;;;1999.90;999.90;;;;;;;24.94;70.05;98301.03;5000090;28;20463;-72
2023/06/24 09:02:55;;;;;;;1999.90;999.90;;;;;;;24.77;69.69;98300.78;5008332;28;20042;-73
2023/06/24 09:05:21;;;;;;;1999.90;999.90;;;;;;;24.72;71.23;98298.31;5011876;28;20041;-71
2023/06/24 09:07:46;;;;;;;1999.90;999.90;;;;;;;25.27;69.20;98297.44;5002397;28;20041;-71
2023/06/24 09:10:29;;;;;;;1999.90;999.90;;;;;;;25.37;69.47;98299.50;4998097;28;20042;-72
2023/06/24 09:12:54;;;;;;;1999.90;999.90;;;;;;;25.86;67.17;98302.03;5000359;28;20019;-72
2023/06/24 09:15:20;;;;;;;1999.90;999.90;;;;;;;25.91;66.01;98303.66;5005914;28;20046;-71
2023/06/24 09:17:48;;;;;;;1999.90;999.90;;;;;;;25.09;69.20;98296.44;5010938;28;20434;-70
2023/06/24 09:20:13;;;;;;;1999.90;999.90;;;;;;;25.02;70.46;98299.13;5003049;28;20018;-73
2023/06/24 09:22:40;;;;;;;1999.90;999.90;;;;;;;24.66;73.05;98294.22;4993280;28;20483;-72
2023/06/24 09:25:06;;;;;;;1999.90;999.90;;;;;;;24.85;71.51;98291.31;5009110;28;20108;-72
2023/06/24 09:27:33;;;;;;;1999.90;999.90;;;;;;;24.61;71.41;98287.00;5008789;28;20137;-72
2023/06/24 09:29:59;;;;;;;1999.90;999.90;;;;;;;25.09;67.56;98293.63;4997266;28;20406;-72
2023/06/24 09:32:31;;;;;;;1999.90;999.90;;;;;;;25.49;66.08;98293.69;4991893;28;20030;-74
2023/06/24 09:34:56;;;;;;;1999.90;999.90;;;;;;;25.65;65.97;98301.03;4999755;28;20037;-73
2023/06/24 09:37:23;;;;;;;1999.90;999.90;;;;;;;26.35;64.23;98289.59;5001319;28;20039;-72
2023/06/24 09:39:48;;;;;;;1999.90;999.90;;;;;;;26.98;61.33;98294.75;4991975;28;20026;-73
2023/06/24 09:42:14;;;;;;;1999.90;999.90;;;;;;;26.97;60.88;98288.31;4974222;28;20033;-73
2023/06/24 09:44:40;;;;;;;1999.90;999.90;;;;;;;25.94;64.61;98283.25;4974271;28;20022;-73
2023/06/24 09:47:05;;;;;;;1999.90;999.90;;;;;;;25.67;64.34;98288.25;4992380;28;20386;-71
2023/06/24 09:49:32;;;;;;;1999.90;999.90;;;;;;;25.68;65.21;98283.44;4988895;28;20180;-74
2023/06/24 09:51:59;;;;;;;1999.90;999.90;;;;;;;24.49;69.54;98276.03;4992412;28;20025;-73
2023/06/24 09:54:27;;;;;;;1999.90;999.90;;;;;;;23.97;71.62;98285.22;4993649;28;20026;-75
2023/06/24 09:56:54;;;;;;;1999.90;999.90;;;;;;;24.71;70.06;98268.72;5002019;28;20104;-75
2023/06/24 09:59:21;;;;;;;1999.90;999.90;;;;;;;24.59;69.97;98266.19;4995086;28;20487;-75
2023/06/24 10:01:47;;;;;;;1999.90;999.90;;;;;;;25.17;67.74;98272.09;4991023;28;20414;-73
2023/06/24 10:04:17;;;;;;;1999.90;999.90;;;;;;;25.77;65.20;98267.91;4991099;28;20030;-76
2023/06/24 10:06:43;;;;;;;1999.90;999.90;;;;;;;24.37;69.97;98254.69;4992522;28;20034;-76
2023/06/24 10:09:08;;;;;;;1999.90;999.90;;;;;;;24.79;69.90;98270.41;4994839;28;20653;-75
2023/06/24 10:11:34;;;;;;;1999.90;999.90;;;;;;;25.59;66.80;98263.34;4991099;28;20527;-73
2023/06/24 10:14:00;;;;;;;1999.90;999.90;;;;;;;26.63;62.82;98267.28;4991062;28;20037;-74
2023/06/24 10:16:25;;;;;;;1999.90;999.90;;;;;;;26.57;61.91;98264.06;4991115;28;20033;-75
2023/06/24 10:18:50;;;;;;;1999.90;999.90;;;;;;;27.03;60.98;98269.09;4993219;28;20018;-75
2023/06/24 10:21:16;;;;;;;1999.90;999.90;;;;;;;27.42;58.67;98270.00;4992218;28;20019;-71
2023/06/24 10:23:47;;;;;;;1999.90;999.90;;;;;;;26.43;60.65;98264.00;4992987;28;20026;-75
2023/06/24 10:26:24;;;;;;;1999.90;999.90;;;;;;;25.93;63.42;98259.22;5003681;28;20038;-74
2023/06/24 10:29:05;;;;;;;1999.90;999.90;;;;;;;25.63;63.44;98258.56;4992730;28;20026;-76
2023/06/24 10:31:39;;;;;;;1999.90;999.90;;;;;;;25.63;65.27;98256.56;4991040;28;20030;-76
2023/06/24 10:34:27;;;;;;;1999.90;999.90;;;;;;;25.73;64.98;98253.06;4990809;28;20419;-75
2023/06/24 10:37:00;;;;;;;1999.90;999.90;;;;;;;26.04;62.74;98251.69;4988762;28;20050;-75
2023/06/24 10:39:56;;;;;;;1999.90;999.90;;;;;;;25.37;65.21;98251.88;4988911;28;20136;-76
2023/06/24 10:42:41;;;;;;;1999.90;999.90;;;;;;;25.08;65.58;98250.00;4987998;28;20061;-74
2023/06/24 10:45:10;;;;;;;1999.90;999.90;;;;;;;25.49;64.58;98248.84;4989977;28;20030;-76
2023/06/24 10:47:43;;;;;;;1999.90;999.90;;;;;;;25.66;65.09;98238.16;4989205;28;20026;-75
2023/06/24 10:50:11;;;;;;;1999.90;999.90;;;;;;;25.67;63.40;98240.59;4982412;28;20084;-76